Terminal Aerodrome Forecast
Issued by NWS

Home | Current Version | Previous Version | Text Only | Print | Product List | Glossary On
Versions: 1 2 3 4 5 6 7 8 9 10 11 12
476
FTPA31 PHFO 232320
TAFHJH
TAF
PHJH 232320Z 2400/2424 03015G24KT P6SM FEW030 SCT050
     FM240400 03012KT P6SM SCT030 BKN050
     FM242000 03015G24KT P6SM FEW030 SCT050=

USA.gov is the U.S. government's official web portal to all federal, state and local government web resources and services.